x

8447387 - Borden Flats Light At Fall River, Ma (bltm3) Weather Station

4:54 - Mon 16th Jan 2017 All times are EST. -5 hours from GMT.

  • Wind
    2mph
  • Air Temp 25°f
  • Sea Pressure 1030.8mb
  • 8447387 - Borden Flats Light At Fall River, Ma
  • 8447387 - Borden Flats Light At Fall River, Ma

More Historic Weather Station data

Upgrade to MSW Pro to gain access to the past 30 days of data for over 8000 Wavebouys and Weather Stations around the globe.

Join Pro

Comparision Forecast

View Surf forecast
   
lun. 01/16 4:54 2
mph
1030.8mb 25f
4:48 2
mph
1031mb 25f
4:42 3
mph
1031mb 26f
4:36 2 3 mph 1031mb 26f
4:30 2
mph
1031mb 26f
4:24 2 3 mph 1031mb 26f
4:18 2 3 mph 1030.9mb 26f
4:12  -  1 mph 1031mb 26f
4:06  -  1 mph 1031.1mb 26f
4:00  -  1 mph 1031.1mb 26f
3:54 1 2 mph 1031.1mb 26f
3:48  -  1 mph 1031.2mb 26f
3:42 1 2 mph 1031.1mb 26f
3:36 1 2 mph 1031.1mb 26f
3:30  -  2 mph 1031.1mb 26f
3:24 2
mph
1031.1mb 26f
3:18 2
mph
1031.2mb 26f
3:12 2 3 mph 1031.2mb 26f
3:06 2 3 mph 1031.1mb 27f
3:00 2
mph
1031.1mb 26f
2:54  -  1 mph 1031.1mb 26f
2:48  -  1 mph 1031.1mb 26f
2:42  -  1 mph 1031mb 25f
2:36 1 2 mph 1031.1mb 26f
2:30 3
mph
1031.1mb 26f
2:24 3 5 mph 1031.2mb 26f
2:18 2 3 mph 1031.2mb 26f
2:12 3 5 mph 1031.1mb 26f
2:06 3 5 mph 1031.2mb 26f
2:00 3 5 mph 1031.2mb 26f
1:54 5 6 mph 1031.1mb 26f
1:48 3 5 mph 1031mb -
1:42 3 5 mph 1030.8mb -
1:36 3
mph
1030.8mb -
1:30 2 3 mph 1030.7mb 27f
1:24 2 3 mph 1030.5mb 27f
1:18  -  1 mph 1030.4mb 27f
1:12 2
mph
1030.4mb 27f
1:06 2 3 mph 1030.5mb 27f
1:00 3
mph
1030.4mb 26f
12:54 2 3 mph 1030.4mb 27f
12:48 2 3 mph 1030.3mb 27f
12:42 3 5 mph 1030.2mb 27f
12:36 3 5 mph 1030.1mb 27f
12:30 3 5 mph 1030mb 27f
12:24 3
mph
1029.9mb 28f
12:18 3 5 mph 1029.8mb 28f
12:12 5
mph
1029.8mb 28f
12:06 5 6 mph 1029.7mb 28f
12:00 6
mph
1029.8mb 28f
dim. 01/15 11:54 6
mph
1029.6mb 28f
11:48 7
mph
1029.6mb 28f
11:42 6
mph
1029.6mb 28f
11:36 6
mph
1029.8mb 28f
11:30 6
mph
1029.9mb 28f
11:24 6
mph
1030mb 28f
11:18 6 7 mph 1030mb 28f
11:12 6 7 mph 1030mb 28f
11:06 6 7 mph 1029.9mb 28f
11:00 6 7 mph 1029.9mb 29f
10:54 6 7 mph 1029.9mb 29f
10:48 6 7 mph 1029.8mb 28f
10:42 6
mph
1029.9mb 29f
10:36 6
mph
1029.9mb 29f
10:30 5
mph
1029.8mb 29f
10:24 3 5 mph 1029.8mb 29f
10:18 3 6 mph 1029.8mb 29f
10:12 5 7 mph 1029.8mb 29f
10:06 3 5 mph 1029.7mb 29f
10:00 2 3 mph 1029.7mb 29f
9:54  -  1 mph 1029.8mb 29f
9:48 2
mph
1029.9mb 30f
9:42  -  1 mph 1029.8mb 30f
9:36 1
mph
1029.8mb 30f
9:30  -  mph 1029.9mb 31f
9:24  -  mph 1029.9mb 31f
9:18  -  mph 1029.7mb 31f
9:12  -  mph 1029.8mb 31f
9:06  -  mph 1029.7mb 31f
9:00 1 2 mph 1029.6mb 31f
8:54 2
mph
1029.4mb 30f
8:48 2
mph
1029.3mb 30f
8:42 1 2 mph 1029.1mb 30f
8:36 1 2 mph 1029.1mb 31f
8:30 2
mph
1029mb 31f
8:24 2 3 mph 1028.9mb 31f
8:18 3
mph
1028.9mb 31f
8:12 2 3 mph 1029mb 31f
8:06 3
mph
1029mb 31f
8:00 5 6 mph 1029mb 32f
7:54 5
mph
1028.8mb 32f
7:48 5
mph
1028.7mb 32f
7:42 5
mph
1028.6mb 32f
7:36 3 5 mph 1028.6mb 32f
7:30 3 5 mph 1028.6mb 32f
7:24 3 5 mph 1028.5mb 32f
7:18 3
mph
1028.5mb 32f
7:12 3
mph
1028.6mb 32f
7:06 2
mph
1028.6mb 33f
7:00 2 3 mph 1028.5mb 33f
6:54 2 3 mph 1028.3mb 33f
6:48 3
mph
1028.2mb 33f
6:42 2 3 mph 1028.2mb 33f
6:36 2 3 mph 1028.1mb 33f
6:30 2
mph
1028.1mb 34f
6:24  -  mph 1028.1mb 34f
6:18  -  mph 1028.1mb 35f
6:12  -  mph 1028.1mb 34f
6:06  -  1 mph 1028mb 34f
6:00  -  2 mph 1027.9mb 34f
5:54 3
mph
1027.7mb 34f
5:48 3 5 mph 1027.7mb 34f
5:42 5 6 mph 1027.5mb 35f
5:36 5 6 mph 1027.5mb 35f
5:30 3
mph
1027.5mb 35f
5:24 3 5 mph 1027.4mb 36f
5:18 3 5 mph 1027.3mb 37f
5:12 5
mph
1027.3mb 37f
5:06 5
mph
1027.2mb 38f
5:00 3 5 mph 1027.2mb 38f
4:54 3 5 mph 1027.1mb 39f
4:48 3 5 mph 1027mb 39f
4:42 5 6 mph 1026.9mb 39f
4:36 6 7 mph 1026.9mb 40f
4:30 6 8 mph 1026.8mb 40f
4:24 7 9 mph 1026.7mb 40f
4:18 8 9 mph 1026.6mb 41f
4:12 9 10 mph 1026.5mb 41f
4:06 8 10 mph 1026.4mb 42f
4:00 8 10 mph 1026.3mb 42f
3:54 9 11 mph 1026.3mb 42f
3:48 8 10 mph 1026.3mb 42f
3:42 8 10 mph 1026.3mb 42f
3:36 9 11 mph 1026.2mb 43f
3:30 7 8 mph 1026.2mb 43f
3:24 9 13 mph 1026.2mb 42f
3:18 11 14 mph 1026.1mb 42f
3:12 11 14 mph 1026mb 43f
3:06 8 11 mph 1026mb 43f
3:00 8 10 mph 1026mb 43f
2:54 9 13 mph 1025.9mb 43f
2:48 8 11 mph 1025.9mb 43f
2:42 9 13 mph 1025.8mb 43f
2:36 8 10 mph 1025.8mb 43f
2:30 5 7 mph 1025.7mb 43f
2:24 5 8 mph 1025.6mb 42f
2:18 9 14 mph 1025.5mb 42f
2:12 7 10 mph 1025.5mb 41f
2:06 6 11 mph 1025.4mb 38f
2:00 10 14 mph 1025.2mb 39f
1:54 6 10 mph 1025.3mb 42f
1:48 7 10 mph 1025.3mb 43f
1:42 6 13 mph 1025.3mb 42f
1:36 6 11 mph 1025.3mb 42f
1:30 8 11 mph 1025.3mb 42f
1:24 8 11 mph 1025.3mb 41f
1:18 7 11 mph 1025.2mb 41f
1:12 11 17 mph 1025.2mb 40f
1:06 11 16 mph 1025.2mb 40f
1:00 13 17 mph 1025.2mb 40f
12:54 13 17 mph 1025.2mb 40f
12:48 14 16 mph 1025.2mb 40f
12:42 14 21 mph 1025.3mb 39f
12:36 10 14 mph 1025.4mb 38f
12:30 8 11 mph 1025.5mb 40f
12:24 8 13 mph 1025.5mb 39f
12:18 9 13 mph 1025.6mb 39f
12:12 14 16 mph 1025.6mb 39f
12:06 9 14 mph 1025.7mb 39f
12:00 10 18 mph 1025.7mb 39f
11:54 9 13 mph 1025.8mb 38f
11:48 11 15 mph 1025.8mb 38f
11:42 10 14 mph 1025.9mb 39f
11:36 14 16 mph 1025.9mb 38f
11:30 6 9 mph 1026mb 38f
11:24 13 16 mph 1026mb 38f
11:18 13 17 mph 1026.1mb 37f
11:12 13 15 mph 1026.1mb 38f
11:06 10 14 mph 1026.2mb 37f
11:00 11 15 mph 1026.2mb 37f
10:54 8 11 mph 1026.3mb 37f
10:48 14 16 mph 1026.4mb 36f
10:42 13 17 mph 1026.5mb 37f
10:36 10 14 mph 1026.5mb 36f
10:30 13 17 mph 1026.5mb 36f
10:24 11 16 mph 1026.5mb 36f
10:18 14 20 mph 1026.5mb 36f
10:12 13 16 mph 1026.6mb 36f
10:06 15 18 mph 1026.6mb 35f
10:00 13 17 mph 1026.7mb 35f
9:54 13 18 mph 1026.7mb 35f
9:48 11 16 mph 1026.7mb 34f
9:42 14 20 mph 1026.7mb 34f
9:36 14 18 mph 1026.7mb 34f
9:30 14 18 mph 1026.7mb 34f
9:24 11 16 mph 1026.7mb 35f
9:18 7 11 mph 1026.8mb 34f
9:12 8 13 mph 1026.8mb 34f
9:06 9 13 mph 1026.7mb 33f
9:00 9 14 mph 1026.6mb 33f
8:54 9 11 mph 1026.6mb 33f
8:48 8 10 mph 1026.5mb 33f
8:42 6 8 mph 1026.4mb 33f
8:36 6 10 mph 1026.4mb 33f
8:30 6 10 mph 1026.2mb 32f
8:24 6 8 mph 1026.2mb 33f
8:18 7 9 mph 1026.1mb 32f
8:12 6 9 mph 1025.9mb 32f
8:06 6 8 mph 1025.9mb 32f
8:00 5 8 mph 1025.8mb 32f
7:54 6 9 mph 1025.7mb 32f
7:48 5 6 mph 1025.6mb 31f
7:42 5 6 mph 1025.5mb 31f
7:36 6 7 mph 1025.4mb 30f
7:30 8 10 mph 1025.2mb 30f
7:24 8 11 mph 1025.1mb 30f
7:18 7 11 mph 1025mb 30f
7:12 3 6 mph 1025mb 30f
7:06 7 11 mph 1024.9mb 30f
7:00 7 10 mph 1024.9mb 29f
6:54 7 9 mph 1024.9mb 29f
6:48 7 10 mph 1024.9mb 29f
6:42 7 9 mph 1024.8mb 29f
6:36 6 8 mph 1024.7mb 29f
6:30 5 7 mph 1024.7mb 29f
6:24 6 9 mph 1024.6mb 29f
6:18 6 9 mph 1024.5mb 29f
6:12 6 8 mph 1024.4mb 30f
6:06 5 7 mph 1024.3mb 30f
6:00 5 7 mph 1024.2mb 30f
5:54 6 7 mph 1024.1mb 30f
5:48 5 8 mph 1024mb 30f
5:42 5 7 mph 1024mb 30f
5:36 6 8 mph 1024mb 30f
5:30 6 9 mph 1024mb 31f
5:24 5 6 mph 1023.9mb 31f
5:18 5 6 mph 1023.9mb 31f
5:12 5 6 mph 1023.9mb 31f
5:06 3 7 mph 1023.9mb 31f
5:00 6 8 mph 1023.9mb 31f
4:54 6 10 mph 1023.9mb 31f
4:48 8 10 mph 1023.8mb 31f
4:42 8 11 mph 1023.8mb 31f
4:36 7 10 mph 1023.8mb 31f
4:30 8 9 mph 1023.8mb 31f
4:24 8 10 mph 1023.8mb 31f
4:18 8 10 mph 1023.8mb 31f
4:12 8 9 mph 1023.9mb 31f
4:06 8 10 mph 1023.9mb 31f
4:00 9 10 mph 1024mb 32f
3:54 8 9 mph 1024mb 32f
3:48 9 11 mph 1024mb 32f
3:42 10 13 mph 1024mb 32f
3:36 11 15 mph 1024mb 32f
3:30 10 13 mph 1024.1mb 32f
3:24 8 11 mph 1024.1mb 32f
3:18 6 8 mph 1024.2mb 32f
3:12 9 10 mph 1024.3mb 32f
3:06 9 11 mph 1024.4mb 32f
3:00 11
mph
1024.4mb 32f
2:54 11 14 mph 1024.3mb 33f
2:48 13 15 mph 1024.4mb 33f
2:42 11 15 mph 1024.3mb 33f
2:36 14 16 mph 1024.3mb 33f
2:30 11 14 mph 1024.4mb 33f
2:24 15 17 mph 1024.4mb 33f
2:18 14 18 mph 1024.6mb 33f
2:12 13 15 mph 1024.5mb 33f
2:06 11 14 mph 1024.6mb 33f
2:00 11 14 mph 1024.6mb 33f
1:54 13 15 mph 1024.6mb 33f
1:48 11 14 mph 1024.7mb -
1:42 10 13 mph 1024.6mb -
1:36 11 13 mph 1024.7mb -
1:30 13 14 mph 1024.7mb 33f
1:24 10 13 mph 1024.7mb 33f
1:18 10 13 mph 1024.7mb 33f
1:12 10 14 mph 1024.7mb 33f
1:06 10 13 mph 1024.8mb 33f
1:00 10 11 mph 1024.8mb 33f
12:54 11 13 mph 1024.9mb 33f
12:48 14 17 mph 1024.9mb -
12:42 13 15 mph 1025mb -
12:36 11 14 mph 1025.1mb -
12:30 9 11 mph 1025.2mb 32f
12:24 10 13 mph 1025.2mb 32f
12:18 9 10 mph 1025.4mb 32f
12:12 8 11 mph 1025.5mb 32f
12:06 9 11 mph 1025.6mb 32f
12:00 9 11 mph 1025.7mb 32f
sam. 01/14 11:54 8 10 mph 1025.8mb 31f
11:48 9 10 mph 1025.9mb 31f
11:42 9 11 mph 1025.9mb 31f
11:36 10 13 mph 1026.1mb 31f
11:30 10 11 mph 1026.2mb 31f
11:24 10 13 mph 1026.3mb 31f
11:18 10 11 mph 1026.5mb 31f
11:12 10 13 mph 1026.7mb 31f
11:06 10 13 mph 1026.7mb 31f
11:00 11 14 mph 1026.7mb 31f
10:54 11 14 mph 1027mb 31f
10:48 11 13 mph 1027.1mb 31f
10:42 11 14 mph 1027.1mb 31f
10:36 11 14 mph 1027.3mb 31f
10:30 11 13 mph 1027.4mb 31f
10:24 13 15 mph 1027.6mb 31f
10:18 14 16 mph 1027.7mb 31f
10:12 15 18 mph 1027.8mb 31f
10:06 13 15 mph 1027.8mb 31f
10:00 15 20 mph 1027.8mb 30f
9:54 13 15 mph 1027.9mb 30f
9:48 14 17 mph 1027.8mb 30f
9:42 15 17 mph 1027.9mb 30f
9:36 16 17 mph 1028.2mb 30f
9:30 15 17 mph 1028.3mb 30f
9:24 15 17 mph 1028.3mb 30f
9:18 13 15 mph 1028.6mb 30f
9:12 13 14 mph 1028.6mb 30f
9:06 11 14 mph 1028.6mb 30f
9:00 13 14 mph 1028.8mb 30f
8:54 11 14 mph 1028.8mb 30f
8:48 11 14 mph 1028.7mb 30f
8:42 11 13 mph 1028.8mb 30f
8:36 10 11 mph 1028.9mb 31f
8:30 9 11 mph 1029.1mb 31f
8:24 10 11 mph 1029.2mb 31f
8:18 10 13 mph 1029.2mb 31f
8:12 11 13 mph 1029.3mb 31f
8:06 10 11 mph 1029.5mb 31f
8:00 11 14 mph 1029.6mb 31f
7:54 13 14 mph 1029.5mb 31f
7:48 14 15 mph 1029.7mb 31f
7:42 7 10 mph 1029.7mb 31f
7:36 5 6 mph 1029.8mb 31f
7:30 5 6 mph 1029.8mb 30f
7:24 3 6 mph 1029.9mb 30f
7:18 5 6 mph 1030mb 30f
7:12 5 6 mph 1030.1mb 30f
7:06 3 5 mph 1030.2mb 30f
7:00 5 7 mph 1030.1mb 30f
6:54 6 7 mph 1030.1mb 30f
6:48 6 7 mph 1030.3mb 29f
6:42 6 8 mph 1030.5mb 29f
6:36 6 9 mph 1030.7mb 29f
6:30 7 8 mph 1030.7mb 29f
6:24 7 9 mph 1030.8mb 29f
6:18 6 8 mph 1030.9mb 29f
6:12 7 9 mph 1030.8mb 29f
6:06 7 10 mph 1031mb 29f
6:00 8 10 mph 1031.1mb 29f
5:54 10 14 mph 1031.2mb 29f
5:48 9 11 mph 1031.3mb 29f
5:42 8 10 mph 1031.4mb 29f
5:36 10 13 mph 1031.5mb 29f
5:30 10 13 mph 1031.6mb 29f
5:24 11 14 mph 1031.6mb 29f
5:18 10 14 mph 1031.7mb 29f
5:12 11 15 mph 1031.7mb 29f
5:06 11 16 mph 1031.8mb 29f
5:00 13 16 mph 1031.8mb 29f
4:54 13 15 mph 1032mb 29f
4:48 10 14 mph 1032.1mb 29f
4:42 9 10 mph 1032mb 29f
4:36 11 14 mph 1032.1mb 29f
4:30 9 14 mph 1032.3mb 29f
4:24 9 11 mph 1032.4mb 29f
4:18 9 13 mph 1032.5mb 29f
4:12 9 13 mph 1032.7mb 29f
4:06 11 14 mph 1032.7mb 29f
4:00 10 14 mph 1032.8mb 29f
3:54 11 15 mph 1033mb 29f
3:48 13 15 mph 1033mb 29f
3:42 11 14 mph 1033.1mb 29f
3:36 7 10 mph 1033.2mb 29f
3:30 11 15 mph 1033.3mb 29f
3:24 8 10 mph 1033.3mb 29f
3:18 11 15 mph 1033.3mb 29f
3:12 8 13 mph 1033.5mb 29f
3:06 8 10 mph 1033.7mb 29f
3:00 8 10 mph 1033.8mb 29f
2:54 7 9 mph 1033.9mb 29f
2:48 6 9 mph 1033.8mb 29f
2:42 6 9 mph 1033.9mb 29f
2:36 6 8 mph 1033.7mb 29f
2:30 5 6 mph 1033.8mb 29f
2:24 6 8 mph 1033.8mb 29f
2:18 5 6 mph 1034mb 29f
2:12 5
mph
1034.2mb 29f
2:06 3 5 mph 1034.3mb 28f
2:00 5 6 mph 1034.3mb 28f
1:54 5 7 mph 1034.4mb 28f
1:48 5 7 mph 1034.6mb 28f
1:42 5 6 mph 1034.8mb 28f
1:36 6 8 mph 1034.7mb 28f
1:30 7 8 mph 1034.8mb 28f
1:24 7 9 mph 1034.9mb 28f
1:18 6 9 mph 1035mb 28f
1:12 6 8 mph 1035mb 28f
1:06 6 8 mph 1035.3mb 28f
1:00 6 7 mph 1035.3mb 28f
12:54 6 7 mph 1035.5mb 28f
12:48 6 7 mph 1035.5mb 28f
12:42 7 9 mph 1035.7mb 28f
12:36 7 8 mph 1036mb 28f
12:30 7 9 mph 1036.2mb 28f
12:24 6 8 mph 1036.3mb 27f
12:18 8 9 mph 1036.3mb 28f
12:12 6 7 mph 1036.5mb 28f
12:06 8 9 mph 1036.7mb 28f
12:00 6 8 mph 1036.6mb 27f
11:54 3 5 mph 1036.7mb 28f
11:48 3 5 mph 1037.1mb 27f
11:42 5 7 mph 1037.1mb 27f
11:36 6
mph
1037.1mb 28f
11:30 2 3 mph 1037.4mb 30f
11:24  -  1 mph 1037.5mb 32f
11:18 3 5 mph 1037.5mb 30f
11:12 5
mph
1037.6mb 30f
11:06 2 5 mph 1037.9mb 32f
11:00 2 6 mph 1038mb 30f
10:54 7 8 mph 1038.1mb 30f
10:48 6 7 mph 1038.3mb 29f
10:42 6 7 mph 1038.3mb 29f
10:36 6 8 mph 1038.5mb 29f
10:30 6 7 mph 1038.7mb 29f
10:24 7 8 mph 1039mb 29f
10:18 6 13 mph 1039.2mb 29f
10:12 5 7 mph 1039.6mb 29f
10:06 6 8 mph 1039.4mb 28f
10:00 5 7 mph 1039.5mb 27f
9:54 6 8 mph 1039.7mb 28f
9:48 3 6 mph 1039.7mb 26f
9:42 6 8 mph 1039.8mb 26f
9:36 5 8 mph 1039.7mb 26f
9:30 5 7 mph 1039.8mb 26f
9:24 5 6 mph 1039.9mb 26f
9:18 7 9 mph 1039.9mb 26f
9:12 8 10 mph 1040mb 26f
9:06 8 9 mph 1040mb 26f
9:00 7 9 mph 1040.3mb 26f
8:54 9 10 mph 1040.2mb 27f
8:48 8 10 mph 1040.4mb 26f
8:42 9 11 mph 1040.1mb 26f
8:36 9 13 mph 1040mb 26f
8:30 8 10 mph 1040.1mb 26f
8:24 8 10 mph 1040mb 25f
8:18 7 9 mph 1040.1mb 24f
8:12 8 10 mph 1040.2mb 24f
8:06 9 11 mph 1040.2mb 24f
8:00 7 8 mph 1040.1mb 25f
7:54 8 11 mph 1040.1mb 24f
7:48 5 7 mph 1040.1mb 24f
7:42 7 9 mph 1039.9mb 23f
7:36 7 9 mph 1039.9mb 23f
7:30 6 8 mph 1039.9mb 23f
7:24 6 8 mph 1039.7mb 23f
7:18 8 10 mph 1039.7mb 23f
7:12 6 7 mph 1039.8mb 23f
7:06 6 9 mph 1039.8mb 23f
7:00 7 9 mph 1039.7mb 23f
6:54 6 7 mph 1040mb 23f
6:48 6 8 mph 1039.9mb 23f
6:42 7 9 mph 1039.9mb 23f
6:36 6 7 mph 1040mb 23f
6:30 7 9 mph 1039.9mb 24f
6:24 7 9 mph 1039.8mb 24f
6:18 7 9 mph 1039.7mb 24f
6:12 7 9 mph 1039.9mb 24f
6:06 7 9 mph 1040mb 24f
6:00 7 9 mph 1039.8mb 24f
5:54 6 8 mph 1040mb 24f
5:48 6 9 mph 1040mb 24f
5:42 7 9 mph 1039.7mb 24f
5:36 7 9 mph 1039.7mb 24f
5:30 8 10 mph 1039.8mb 24f
5:24 7 9 mph 1039.7mb 25f
5:18 7 8 mph 1039.6mb 25f
5:12 8 10 mph 1039.7mb 25f
5:06 7 9 mph 1039.8mb 25f
5:00 8 10 mph 1039.7mb 25f
4:54 8 10 mph 1039.8mb 25f
4:48 9 13 mph 1039.9mb 25f
4:42 9 11 mph 1039.9mb 25f
4:36 8 10 mph 1039.8mb 25f
4:30 7 9 mph 1040mb 26f
4:24 6 8 mph 1040mb 26f
4:18 8 9 mph 1039.9mb 26f
4:12 6 8 mph 1039.9mb 26f
4:06 6 8 mph 1040mb 26f
4:00 6 8 mph 1039.9mb 26f
3:54 7 8 mph 1040mb 26f
3:48 8 10 mph 1039.8mb 26f
3:42 8 10 mph 1040mb 26f
3:36 8 10 mph 1040mb 26f
3:30 7 9 mph 1039.8mb 27f
3:24 6 8 mph 1039.8mb 27f
3:18 7 9 mph 1039.8mb 27f
3:12 7 9 mph 1039.8mb 27f
3:06 7 9 mph 1039.8mb 27f
3:00 7 9 mph 1039.8mb 27f
2:54 8 9 mph 1039.7mb 27f
2:48 7 8 mph 1039.7mb 27f
2:42 8 9 mph 1039.6mb 28f
2:36 7 10 mph 1039.7mb 28f
2:30 7 10 mph 1039.7mb 28f
2:24 6 9 mph 1039.7mb 28f
2:18 8 11 mph 1039.6mb 28f
2:12 7 10 mph 1039.5mb 28f
2:06 7 9 mph 1039.5mb 28f
2:00 8 10 mph 1039.4mb 28f
1:54 8 10 mph 1039.4mb 28f
1:48 7 10 mph 1039.3mb -
1:42 8 10 mph 1039.3mb -
1:36 9 11 mph 1039.2mb -
1:30 9 11 mph 1039mb 29f
1:24 7 9 mph 1038.9mb 29f
1:18 8 10 mph 1038.9mb 29f
1:12 8 9 mph 1038.8mb 29f
1:06 8 10 mph 1038.7mb 29f
1:00 9 11 mph 1038.6mb 29f
12:54 9 11 mph 1038.6mb 29f
12:48 9 13 mph 1038.7mb 29f
12:42 11 16 mph 1038.7mb 30f
12:36 13 17 mph 1038.7mb 30f
12:30 9 11 mph 1038.7mb 30f
12:24 10 15 mph 1038.6mb 30f
12:18 9 16 mph 1038.4mb 30f
12:12 11 15 mph 1038.5mb 30f
12:06 11 15 mph 1038.4mb 30f
12:00 16 23 mph 1038.3mb 31f
ven. 01/13 11:54 13 18 mph 1038.2mb 31f
11:48 13 17 mph 1038.1mb 31f
11:42 13 15 mph 1038.1mb 31f
11:36 11 14 mph 1038.2mb 31f
11:30 9 13 mph 1038.1mb 32f
11:24 10 14 mph 1038.1mb 32f
11:18 8 10 mph 1038.2mb 32f
11:12 9 11 mph 1038.2mb 32f
11:06 8 10 mph 1038.1mb 32f
11:00 10 15 mph 1038mb 32f
10:54 11 14 mph 1038mb 32f
10:48 10 13 mph 1038mb 33f
10:42 10 14 mph 1037.9mb 33f
10:36 11 16 mph 1037.7mb 33f
10:30 11 15 mph 1037.6mb 33f
10:24 13 20 mph 1037.5mb 33f
10:18 8 11 mph 1037.4mb 33f
10:12 8 10 mph 1037.5mb 33f
10:06 7 9 mph 1037.5mb 33f
10:00 7 10 mph 1037.3mb -
9:54 8 13 mph 1037.2mb -
9:48 9 10 mph 1037.1mb 34f
9:42 7 9 mph 1037.1mb 34f
9:36 9 13 mph 1037.1mb 34f
9:30 8 9 mph 1037.1mb 34f
9:24 8 11 mph 1037mb 34f
9:18 9 13 mph 1037mb 34f
9:12 11 15 mph 1037mb 35f
9:06 11 16 mph 1036.7mb 35f
9:00 9 11 mph 1036.7mb 35f
8:54 9 11 mph 1036.5mb 35f
8:48 8 10 mph 1036.5mb 35f
8:42 9 13 mph 1036.3mb 35f
8:36 10 11 mph 1036.2mb 35f
8:30 11 16 mph 1036mb 36f
8:24 11 15 mph 1035.8mb 36f
8:18 14 16 mph 1035.8mb 36f
8:12 10 14 mph 1035.8mb 36f
8:06 14 18 mph 1035.7mb 36f
8:00 13 15 mph 1035.6mb 36f
7:54 13 16 mph 1035.4mb 36f
7:48 13 16 mph 1035.4mb 37f
7:42 14 18 mph 1035.2mb 37f
7:36 13 16 mph 1035.1mb 37f
7:30 13 16 mph 1035.1mb 37f
7:24 15 18 mph 1035mb 37f
7:18 13 16 mph 1035mb 37f
7:12 11 16 mph 1034.8mb 37f
7:06 11 16 mph 1034.7mb 37f
7:00 15 20 mph 1034.5mb 37f
6:54 14 22 mph 1034.4mb 38f
6:48 13 21 mph 1034.3mb 38f
6:42 10 15 mph 1034.1mb 38f
6:36 14 17 mph 1033.9mb 38f
6:30 8 14 mph 1033.9mb 38f
6:24 11 16 mph 1033.8mb 38f
6:18 13 17 mph 1033.6mb 39f
6:12 14 18 mph 1033.3mb 39f
6:06 10 14 mph 1033.2mb 39f
6:00 14 17 mph 1033.1mb 39f
5:54 13 17 mph 1033mb 39f
5:48 14 17 mph 1032.9mb 39f
5:42 11 14 mph 1032.9mb 39f
5:36 10 15 mph 1032.8mb 40f
5:30 11 15 mph 1032.6mb 40f
5:24 14 17 mph 1032.5mb 40f
5:18 16 23 mph 1032.3mb 40f
5:12 16 22 mph 1032.3mb 40f
5:06 15 20 mph 1032.2mb 40f
5:00 14 18 mph 1032.1mb 41f
4:54 17 22 mph 1031.8mb 41f
4:48 20 26 mph 1031.6mb 41f
4:42 14 17 mph 1031.6mb 42f
4:36 17 23 mph 1031.3mb 42f
4:30 16 22 mph 1031.2mb 42f
4:24 16 24 mph 1031mb 42f
4:18 18 24 mph 1030.8mb 43f
4:12 14 20 mph 1030.6mb 43f
4:06 17 26 mph 1030.3mb 44f
4:00 16 22 mph 1030.3mb 44f
3:54 15 22 mph 1030.2mb 44f
3:48 21 30 mph 1030mb 44f
3:42 18 28 mph 1029.9mb 44f
3:36 17 26 mph 1029.8mb 44f
3:30 20 26 mph 1029.7mb 45f
3:24 22 28 mph 1029.5mb 45f
3:18 21 25 mph 1029.5mb 45f
3:12 22 26 mph 1029.4mb 45f
3:06 18 24 mph 1029.3mb 46f
3:00 18 25 mph 1029.2mb 46f
2:54 17 22 mph 1029mb 46f
2:48 17 23 mph 1028.8mb 46f
2:42 20 25 mph 1028.7mb 45f
2:36 24 29 mph 1028.5mb 45f
2:30 20 26 mph 1028.3mb 46f
2:24 18 25 mph 1028.1mb 46f
2:18 20 24 mph 1027.9mb 47f
2:12 23 29 mph 1027.9mb 46f
2:06 26 32 mph 1027.8mb 46f
2:00 22 28 mph 1027.6mb 46f
1:54 25 31 mph 1027.4mb 46f
1:48 25 36 mph 1027.4mb 46f
1:42 20 25 mph 1027.3mb 46f
1:36 17 25 mph 1027.3mb 47f
1:30 21 28 mph 1027.2mb 47f
1:24 21 30 mph 1027.2mb 47f
1:18 23 29 mph 1027.1mb 47f
1:12 20 24 mph 1027.1mb 47f
1:06 18 24 mph 1027mb 46f
1:00 28 34 mph 1026.7mb 46f
12:54 21 26 mph 1026.8mb 46f
12:48 29 36 mph 1026.6mb 46f
12:42 28 37 mph 1026.5mb 46f
12:36 23 29 mph 1026.5mb 46f
12:30 25 32 mph 1026.4mb 47f
12:24 18 25 mph 1026.4mb 48f
12:18 15 20 mph 1026.5mb 47f
12:12 16 23 mph 1026.5mb 47f
12:06 16 22 mph 1026.5mb 46f
12:00 14 22 mph 1026.4mb 46f
11:54 15 18 mph 1026.4mb 47f
11:48 16 23 mph 1026.3mb 46f
11:42 14 18 mph 1026.4mb 46f
11:36 18 23 mph 1026.3mb 47f
11:30 18 26 mph 1026.2mb 47f
11:24 16 23 mph 1026.3mb 47f
11:18 23 28 mph 1026.3mb 46f
11:12 20 33 mph 1026.3mb 46f
11:06 16 22 mph 1026.3mb 46f
11:00 18 28 mph 1026.4mb 46f
10:54 23 28 mph 1026.3mb 45f
10:48 15 20 mph 1026.4mb 46f
10:42 17 23 mph 1026.3mb 46f
10:36 21 26 mph 1026.3mb 45f
10:30 18 23 mph 1026.1mb 45f
10:24 17 22 mph 1026.2mb 45f
10:18 21 29 mph 1026.2mb 45f
10:12 15 22 mph 1026.2mb 45f
10:06 15 23 mph 1026.2mb 45f
10:00 18 24 mph 1026.2mb 45f
9:54 17 23 mph 1026.2mb 45f
9:48 20 28 mph 1026.1mb 45f
9:42 18 29 mph 1025.9mb 46f
9:36 16 26 mph 1025.9mb 46f
9:30 13 17 mph 1025.9mb 46f
9:24 20 25 mph 1025.7mb 45f
9:18 17 22 mph 1025.6mb 45f
9:12 20 26 mph 1025.5mb 45f
9:06 20 26 mph 1025.5mb 45f
9:00 17 24 mph 1025.5mb 46f
8:54 23 30 mph 1025.3mb 45f
8:48 16 22 mph 1025.3mb 45f
8:42 20 28 mph 1025.1mb 46f
8:36 16 22 mph 1025mb 46f
8:30 15 22 mph 1024.9mb 46f
8:24 14 20 mph 1024.7mb 46f
8:18 15 21 mph 1024.6mb 46f
8:12 16 20 mph 1024.5mb 46f
8:06 20 25 mph 1024.4mb 46f
8:00 13 22 mph 1024.4mb 46f
7:54 14 17 mph 1024.2mb 46f
7:48 14 21 mph 1023.8mb 46f
7:42 11 17 mph 1023.8mb 46f
7:36 9 13 mph 1023.6mb 46f
7:30 11 14 mph 1023.5mb 46f
7:24 15 22 mph 1023.3mb 46f
7:18 15 20 mph 1023.2mb 46f
7:12 20 23 mph 1023.1mb 47f
7:06 18 26 mph 1023mb 47f
7:00 21 25 mph 1022.7mb 47f
6:54 21 28 mph 1022.7mb 47f
6:48 21 29 mph 1022.5mb 47f
6:42 22 29 mph 1022.4mb 48f
6:36 21 29 mph 1022.4mb 48f
6:30 14 20 mph 1022.3mb 48f
6:24 15 18 mph 1022.1mb 48f
6:18 16 20 mph 1021.9mb 48f
6:12 16 23 mph 1021.7mb 49f
6:06 18 23 mph 1021.6mb 49f
6:00 18 23 mph 1021.4mb 49f
5:54 22 30 mph 1021.3mb 49f
5:48 22 25 mph 1020.9mb 49f
5:42 21 26 mph 1020.7mb 50f
5:36 15 21 mph 1020.4mb 50f
5:30 21 28 mph 1020.2mb 50f
5:24 9 15 mph 1020.1mb 47f
5:18 9 11 mph 1019.7mb 46f
5:12 13 15 mph 1019.4mb 50f
5:06 14 15 mph 1019.1mb 49f
5:00 13 14 mph 1018.9mb 48f
4:54 13 14 mph 1018.7mb 49f
4:48 14
mph
1018.6mb 50f
4:42 13 14 mph 1018.3mb 51f
4:36 14
mph
1018.1mb 50f
4:30 14
mph
1018.4mb 49f
4:24 14
mph
1018.4mb 51f
4:18 14
mph
1018.3mb 50f
4:12 15
mph
1018.2mb 50f
4:06 15
mph
1018mb 50f
4:00 14
mph
1018.1mb 50f
3:54 15 16 mph 1018mb 50f
3:48 16 17 mph 1018.1mb 48f
3:42 18 20 mph 1018.1mb 49f
3:36 18 20 mph 1018mb 49f
3:30 17 18 mph 1018mb 50f
3:24 17 20 mph 1017.9mb 49f
3:18 17 18 mph 1018mb 48f
3:12 18 20 mph 1018mb 48f
3:06 18 20 mph 1018mb 49f
3:00 17 20 mph 1017.9mb 49f
2:54 17 18 mph 1017.8mb 48f
2:48 17 18 mph 1017.8mb 49f
2:42 17 20 mph 1017.7mb 52f
2:36 17 20 mph 1017.6mb 52f
2:30 18 21 mph 1017.6mb 53f
2:24 18 21 mph 1017.6mb 53f
2:18 18 23 mph 1017.4mb 54f
2:12 16 21 mph 1017.4mb 53f
2:06 18 22 mph 1017.1mb 53f
2:00 17 21 mph 1017mb 53f
1:54 15 18 mph 1016.9mb 53f
1:48 15 18 mph 1016.8mb 53f
1:42 13 16 mph 1016.8mb 52f
1:36 14 16 mph 1016.6mb 52f
1:30  -  mph 1016.7mb 52f
1:24  -  mph 1016.5mb 52f
1:18  -  mph 1016.7mb 52f
1:12  -  mph 1016.6mb 51f
1:06  -  mph 1016.6mb 51f
1:00  -  mph 1016.6mb 51f
12:54  -  mph 1016.5mb 51f
12:48  -  mph 1016.5mb 52f
12:42  -  mph 1016.5mb 52f
12:36  -  mph 1016.4mb 52f
12:30  -  mph 1016.3mb 52f
12:24  -  mph 1016.2mb 52f
12:18  -  mph 1016.2mb 52f
12:12  -  mph 1016.3mb 52f
12:06  -  mph 1016.4mb 52f
12:00  -  mph 1016.3mb 50f
jeu. 01/12 11:54  -  mph 1016.3mb 49f
11:48 14 16 mph 1016.3mb 47f
11:42 15 17 mph 1016.2mb 49f
11:36 14 16 mph 1016.2mb 51f
11:30 13 17 mph 1016.2mb 50f
11:24 11 16 mph 1016.1mb 49f
11:18 13 16 mph 1016.1mb 53f
11:12 14 18 mph 1016mb 53f
11:06 14 18 mph 1016.1mb 53f
11:00 16 20 mph 1016.1mb 53f
10:54 14 18 mph 1016.2mb 53f
10:48 16 20 mph 1016.2mb 53f
10:42 15 21 mph 1016.1mb 54f
10:30 15 22 mph 1016.3mb 53f
10:24 16 21 mph 1016.3mb 53f
10:18 14 17 mph 1016.3mb 53f
10:12 15 18 mph 1016.3mb 53f
10:06 17 22 mph 1016.4mb 53f
10:00  -  mph 1016.4mb 53f
9:54  -  mph 1016.5mb 53f
9:48  -  mph 1016.4mb 52f
9:42  -  mph 1016.5mb 53f
9:36  -  mph 1016.6mb 52f
9:30  -  mph 1016.6mb 53f
9:24  -  mph 1016.5mb 53f
9:18 16 20 mph 1016.4mb 53f
9:12 18 23 mph 1016.3mb 53f
9:06 16 23 mph 1016.5mb 53f
9:00 16 21 mph 1016.5mb 53f
8:54 14 18 mph 1016.6mb 52f
8:48 14 16 mph 1016.7mb 51f
8:42 14 16 mph 1017.2mb 52f
8:36 14 21 mph 1016.6mb 52f
8:30 14 18 mph 1016.7mb 52f
8:24 15 18 mph 1017.2mb 51f
8:18  -  mph 1017.4mb 51f
8:12  -  mph 1017.3mb 51f
8:06  -  mph 1017.1mb 52f
8:00  -  mph 1017.1mb 51f
7:54  -  mph 1017.1mb 52f
7:48 14 18 mph 1016.9mb 52f
7:42 14 18 mph 1016.9mb 51f
7:36 16 20 mph 1016.8mb 52f
7:30 15 20 mph 1016.5mb 52f
7:24 15 20 mph 1016.3mb 52f
7:18 13 17 mph 1016.4mb 52f
7:12 15 20 mph 1016.5mb 52f
7:06 15 17 mph 1016.5mb 51f
7:00 14 17 mph 1016.4mb 49f
6:54 13 15 mph 1016.4mb 47f
6:48 13 14 mph 1016.4mb 46f
6:42 13 14 mph 1016.5mb 46f
6:36 13 15 mph 1016.4mb 47f
6:30 13 14 mph 1016.3mb 46f
6:24 11 13 mph 1016.5mb 47f
6:18  -  mph 1016.4mb 48f
6:12  -  mph 1016.2mb 49f
6:06  -  mph 1016.1mb 51f
6:00 14 18 mph 1016.1mb 52f
5:54 15 18 mph 1015.8mb 52f
5:48  -  mph 1015.6mb 52f
5:42  -  mph 1015.6mb 52f
5:36  -  mph 1015.6mb 52f
5:30  -  mph 1015.5mb 52f
5:24  -  mph 1015.7mb 52f
5:18 20 25 mph 1015.9mb 52f
5:12 17 23 mph 1015.5mb 52f
5:06 16 25 mph 1014.9mb 52f
5:00 16 22 mph 1014.7mb 52f
4:54 17 23 mph 1015.3mb 52f
4:48  -  mph 1015.4mb 51f
4:42  -  mph 1015.4mb 51f
4:36  -  mph 1015.5mb 51f
4:30  -  mph 1015.7mb 51f
4:24  -  mph 1016.2mb 50f
4:18  -  mph 1015.7mb 52f
4:12  -  mph 1015.4mb 52f
4:06  -  mph 1015.4mb 52f
4:00  -  mph 1015.2mb 52f
3:54  -  mph 1015mb 52f
3:48  -  mph 1015.2mb 52f
3:42  -  mph 1015.4mb 52f
3:36  -  mph 1015.4mb 52f
3:30  -  mph 1015.6mb 53f
3:24  -  mph 1015.6mb 53f
3:18 20 26 mph 1015.6mb 53f
3:12 18 24 mph 1015.8mb 52f
3:06 23 29 mph 1015.6mb 52f
3:00  -  mph 1015.9mb 52f
2:54  -  mph 1016.2mb 52f
2:48  -  mph 1016.1mb 53f
2:42  -  mph 1016mb 52f
2:36  -  mph 1015.4mb 53f
2:30 17 24 mph 1015.3mb 53f
2:24 16 22 mph 1014.9mb 53f
2:18  -  mph 1015.1mb 53f
2:12  -  mph 1015.3mb 53f
2:06  -  mph 1015.4mb 53f
2:00 15 20 mph 1015.8mb 53f
1:54 17 20 mph 1015.9mb 54f
1:48 18 25 mph 1016.1mb 54f
1:42 20 28 mph 1016.1mb 54f
1:36 20 24 mph 1016.1mb 54f
1:30  -  mph 1016.1mb 54f
1:24  -  mph 1016.2mb 54f
1:18  -  mph 1016.2mb 53f
1:12  -  mph 1016.3mb 53f
1:06  -  mph 1016.2mb 53f
1:00  -  mph 1016.3mb 53f
12:54  -  mph 1016.4mb 53f
12:48  -  mph 1016.5mb 53f
12:42  -  mph 1016.5mb 53f
12:36  -  mph 1016.6mb 52f
12:30  -  mph 1016.8mb 51f
12:24  -  mph 1016.9mb 51f
12:18  -  mph 1016.9mb 51f
12:12  -  mph 1017.1mb 52f
12:06  -  mph 1017.1mb 52f
12:00 20 23 mph 1016.9mb 53f
11:54 16 21 mph 1016.8mb 53f
11:48 18 24 mph 1017mb 52f
11:42 16 20 mph 1017.2mb 52f
11:36 17 23 mph 1017.4mb 52f
11:30  -  mph 1017.7mb 51f
11:24  -  mph 1017.9mb 51f
11:18  -  mph 1017.8mb 52f
11:12  -  mph 1017.9mb 51f
11:06  -  mph 1018mb 52f
11:00 20 25 mph 1018.1mb 52f
10:54 18 23 mph 1018.3mb 52f
10:48  -  mph 1018.4mb 52f